createdAt,value
2022-10-28T00:01:22.202Z,27.92
2022-10-28T00:03:52.860Z,28.73
2022-10-28T00:06:30.067Z,27.70
2022-10-28T00:08:57.880Z,27.92
2022-10-28T00:11:29.398Z,28.23
2022-10-28T00:13:58.619Z,27.50
2022-10-28T00:16:29.835Z,26.65
2022-10-28T00:18:59.647Z,28.63
2022-10-28T00:21:30.308Z,27.40
2022-10-28T00:23:57.562Z,28.73
2022-10-28T00:26:31.207Z,28.63
2022-10-28T00:29:08.759Z,29.00
2022-10-28T00:31:37.711Z,28.50
2022-10-28T00:34:13.350Z,30.25
2022-10-28T00:36:44.284Z,32.80
2022-10-28T00:39:18.492Z,33.90
2022-10-28T00:41:51.332Z,34.90
2022-10-28T00:44:48.615Z,34.08
2022-10-28T00:47:55.310Z,31.23
2022-10-28T00:50:46.049Z,33.25
2022-10-28T00:53:19.121Z,33.92
2022-10-28T00:55:48.731Z,33.72
2022-10-28T00:58:17.629Z,34.20
2022-10-28T01:00:44.831Z,36.00
2022-10-28T01:03:11.799Z,36.25
2022-10-28T01:05:42.810Z,35.38
2022-10-28T01:08:10.103Z,36.55
2022-10-28T01:10:45.653Z,35.65
2022-10-28T01:13:43.838Z,32.47
2022-10-28T01:16:46.075Z,32.20
2022-10-28T01:19:49.265Z,30.45
2022-10-28T01:22:38.858Z,29.88
2022-10-28T01:25:34.716Z,28.23
2022-10-28T01:28:20.729Z,28.77
2022-10-28T01:31:24.962Z,29.08
2022-10-28T01:34:09.574Z,28.98
2022-10-28T01:37:01.054Z,27.83
2022-10-28T01:40:09.690Z,26.58
2022-10-28T01:42:44.889Z,27.30
2022-10-28T01:45:36.035Z,25.02
2022-10-28T01:48:17.502Z,26.42
2022-10-28T01:51:01.839Z,26.85
2022-10-28T01:53:35.894Z,27.70
2022-10-28T01:56:09.651Z,27.70
2022-10-28T01:58:38.985Z,27.02
2022-10-28T02:01:09.264Z,25.73
2022-10-28T02:03:36.908Z,27.60
2022-10-28T02:06:12.971Z,27.10
2022-10-28T02:09:35.574Z,27.42
2022-10-28T02:12:24.952Z,26.80
2022-10-28T02:18:01.415Z,26.65
2022-10-28T02:20:51.556Z,26.40
2022-10-28T02:23:45.651Z,25.33
2022-10-28T02:26:52.624Z,23.77
2022-10-28T02:29:37.559Z,24.35
2022-10-28T02:32:19.754Z,23.90
2022-10-28T02:34:52.718Z,24.42
2022-10-28T02:37:41.284Z,24.73
2022-10-28T02:40:16.064Z,23.02
2022-10-28T02:42:58.933Z,22.95
2022-10-28T02:45:46.989Z,23.13
2022-10-28T02:48:25.023Z,23.35
2022-10-28T02:51:06.116Z,22.08
2022-10-28T02:53:55.777Z,22.58
2022-10-28T02:56:22.809Z,22.67
2022-10-28T02:58:50.197Z,24.58
2022-10-28T03:01:17.298Z,23.27
2022-10-28T03:03:44.535Z,24.13
2022-10-28T03:06:11.498Z,24.10
2022-10-28T03:08:38.455Z,23.13
2022-10-28T03:11:05.565Z,23.45
2022-10-28T03:13:32.516Z,22.33
2022-10-28T03:15:59.442Z,23.75
2022-10-28T03:18:26.427Z,21.70
2022-10-28T03:20:56.643Z,21.85
2022-10-28T03:23:25.875Z,22.05
2022-10-28T03:25:52.769Z,22.97
2022-10-28T03:28:19.770Z,22.30
2022-10-28T03:30:46.719Z,22.08
2022-10-28T03:33:13.685Z,21.57
2022-10-28T03:35:40.638Z,21.98
2022-10-28T03:38:07.652Z,22.33
2022-10-28T03:40:34.886Z,21.90
2022-10-28T03:43:01.836Z,22.07
2022-10-28T03:47:56.824Z,20.45
2022-10-28T03:50:25.215Z,21.67
2022-10-28T03:52:52.138Z,19.92
2022-10-28T03:55:19.129Z,20.30
2022-10-28T03:57:46.066Z,21.53
2022-10-28T04:00:14.085Z,20.88
2022-10-28T04:02:40.999Z,20.47
2022-10-28T04:05:08.346Z,21.10
2022-10-28T04:07:35.554Z,20.35
2022-10-28T04:10:02.619Z,20.90
2022-10-28T04:12:29.518Z,21.45
2022-10-28T04:14:56.521Z,20.30
2022-10-28T04:17:23.605Z,21.20
2022-10-28T04:19:50.545Z,20.33
2022-10-28T04:22:17.648Z,20.33
2022-10-28T04:24:44.613Z,20.50
2022-10-28T04:27:11.593Z,21.40
2022-10-28T04:29:38.512Z,22.10
2022-10-28T04:32:05.523Z,20.47
2022-10-28T04:34:32.478Z,21.83
2022-10-28T04:36:59.397Z,19.55
2022-10-28T04:39:26.369Z,21.00
2022-10-28T04:41:53.318Z,20.58
2022-10-28T04:44:20.278Z,21.20
2022-10-28T04:46:47.203Z,20.77
2022-10-28T04:49:14.109Z,21.03
2022-10-28T04:51:41.054Z,20.70
2022-10-28T04:54:08.132Z,20.67
2022-10-28T04:56:35.090Z,21.10
2022-10-28T04:59:02.037Z,20.27
2022-10-28T05:01:29.076Z,20.67
2022-10-28T05:03:56.147Z,20.17
2022-10-28T05:06:23.060Z,21.17
2022-10-28T05:08:50.062Z,20.17
2022-10-28T05:11:16.998Z,20.70
2022-10-28T05:13:43.999Z,20.40
2022-10-28T05:16:10.965Z,19.33
2022-10-28T05:18:38.086Z,20.37
2022-10-28T05:21:05.305Z,20.97
2022-10-28T05:23:32.626Z,20.37
2022-10-28T05:25:59.636Z,20.00
2022-10-28T05:28:26.645Z,20.23
2022-10-28T05:30:53.809Z,20.02
2022-10-28T05:33:21.263Z,20.10
2022-10-28T05:35:48.304Z,21.17
2022-10-28T05:38:15.332Z,20.97
2022-10-28T05:40:42.649Z,19.63
2022-10-28T05:43:10.379Z,20.53
2022-10-28T05:45:37.531Z,20.67
2022-10-28T05:48:04.927Z,21.00
2022-10-28T05:50:31.863Z,20.40
2022-10-28T05:52:58.856Z,20.90
2022-10-28T05:55:29.604Z,21.52
2022-10-28T05:57:57.304Z,19.55
2022-10-28T06:00:26.421Z,20.30
2022-10-28T06:02:53.898Z,21.02
2022-10-28T06:05:21.360Z,20.73
2022-10-28T06:07:48.291Z,20.38
2022-10-28T06:10:15.910Z,20.02
2022-10-28T06:12:41.270Z,20.45
2022-10-28T06:15:09.203Z,21.27
2022-10-28T06:17:36.231Z,19.88
2022-10-28T06:20:04.352Z,19.27
2022-10-28T06:22:31.429Z,21.80
2022-10-28T06:24:58.333Z,20.50
2022-10-28T06:27:25.255Z,20.80
2022-10-28T06:29:52.228Z,20.60
2022-10-28T06:32:19.155Z,21.45
2022-10-28T06:34:46.126Z,19.95
2022-10-28T06:37:13.165Z,19.20
2022-10-28T06:39:41.998Z,19.63
2022-10-28T06:42:08.962Z,18.50
2022-10-28T06:44:35.877Z,20.60
2022-10-28T06:47:04.422Z,17.92
2022-10-28T06:49:31.272Z,18.17
2022-10-28T06:51:58.212Z,18.38
2022-10-28T06:54:25.134Z,16.95
2022-10-28T06:56:52.112Z,17.90
2022-10-28T06:59:19.018Z,17.42
2022-10-28T07:01:46.063Z,17.88
2022-10-28T07:04:13.992Z,18.50
2022-10-28T07:06:41.296Z,18.20
2022-10-28T07:09:08.205Z,18.27
2022-10-28T07:11:35.177Z,20.00
2022-10-28T07:14:02.169Z,22.38
2022-10-28T07:16:29.117Z,22.77
2022-10-28T07:18:56.062Z,18.23
2022-10-28T07:21:28.414Z,20.23
2022-10-28T07:23:56.717Z,19.15
2022-10-28T07:26:24.341Z,20.77
2022-10-28T07:28:51.384Z,17.75
2022-10-28T07:31:18.597Z,18.45
2022-10-28T07:33:45.685Z,18.92
2022-10-28T07:36:12.701Z,18.45
2022-10-28T07:38:39.698Z,18.13
2022-10-28T07:41:09.471Z,19.35
2022-10-28T07:43:39.965Z,18.08
2022-10-28T07:46:08.172Z,19.45
2022-10-28T07:48:36.328Z,19.17
2022-10-28T07:51:08.887Z,18.15
2022-10-28T07:53:36.069Z,18.02
2022-10-28T07:56:09.727Z,19.05
2022-10-28T07:58:37.234Z,18.75
2022-10-28T08:01:09.326Z,20.00
2022-10-28T08:03:39.031Z,19.77
2022-10-28T08:06:20.928Z,21.00
2022-10-28T08:08:52.627Z,20.88
2022-10-28T08:11:22.590Z,19.77
2022-10-28T08:13:50.814Z,19.60
2022-10-28T08:16:18.303Z,20.52
2022-10-28T08:18:46.013Z,21.00
2022-10-28T08:21:14.521Z,20.70
2022-10-28T08:23:46.479Z,21.15
2022-10-28T08:26:15.738Z,19.83
2022-10-28T08:28:43.345Z,20.45
2022-10-28T08:31:12.417Z,20.77
2022-10-28T08:33:45.386Z,21.85
2022-10-28T08:36:15.809Z,20.63
2022-10-28T08:38:47.070Z,21.05
2022-10-28T08:41:47.632Z,21.77
2022-10-28T08:44:55.726Z,20.88
2022-10-28T08:48:06.555Z,22.05
2022-10-28T08:50:49.134Z,19.65
2022-10-28T08:53:47.951Z,20.05
2022-10-28T08:56:27.872Z,19.50
2022-10-28T08:58:59.084Z,18.75
2022-10-28T09:01:56.476Z,18.17
2022-10-28T09:04:45.672Z,19.23
2022-10-28T09:07:24.315Z,18.17
2022-10-28T09:09:52.907Z,18.88
2022-10-28T09:12:37.623Z,18.67
2022-10-28T09:15:38.024Z,18.13
2022-10-28T09:18:36.720Z,17.77
2022-10-28T09:21:12.638Z,20.40
2022-10-28T09:23:52.712Z,18.40
2022-10-28T09:26:54.420Z,18.73
2022-10-28T09:30:01.824Z,17.60
2022-10-28T09:32:59.319Z,18.83
2022-10-28T09:35:30.975Z,17.77
2022-10-28T09:38:14.890Z,17.23
2022-10-28T09:40:49.415Z,17.55
2022-10-28T09:43:32.257Z,18.40
2022-10-28T09:46:07.884Z,16.02
2022-10-28T09:48:41.061Z,17.48
2022-10-28T09:51:43.446Z,17.98
2022-10-28T09:54:12.724Z,16.67
2022-10-28T09:56:40.531Z,18.25
2022-10-28T09:59:13.601Z,16.23
2022-10-28T10:01:43.376Z,15.38
2022-10-28T10:04:25.088Z,16.23
2022-10-28T10:07:19.101Z,16.90
2022-10-28T10:09:46.069Z,18.27
2022-10-28T10:12:14.131Z,16.65
2022-10-28T10:14:56.559Z,16.58
2022-10-28T10:17:40.359Z,16.30
2022-10-28T10:20:12.614Z,15.98
2022-10-28T10:22:42.874Z,16.70
2022-10-28T10:25:18.681Z,17.05
2022-10-28T10:28:02.682Z,15.43
2022-10-28T10:30:33.071Z,15.20
2022-10-28T10:33:01.504Z,15.95
2022-10-28T10:35:31.264Z,16.35
2022-10-28T10:38:01.666Z,15.55
2022-10-28T10:40:34.228Z,15.63
2022-10-28T10:43:31.249Z,15.68
2022-10-28T10:46:18.107Z,15.25
2022-10-28T10:48:45.249Z,16.00
2022-10-28T10:51:25.927Z,16.17
2022-10-28T10:54:00.862Z,16.20
2022-10-28T10:56:32.762Z,16.13
2022-10-28T10:59:03.592Z,15.48
2022-10-28T11:01:39.927Z,14.93
2022-10-28T11:04:14.457Z,14.98
2022-10-28T11:06:44.228Z,18.25
2022-10-28T11:09:36.229Z,16.17
2022-10-28T11:12:27.148Z,14.88
2022-10-28T11:14:56.759Z,15.95
2022-10-28T11:17:35.032Z,15.35
2022-10-28T11:20:38.161Z,15.48
2022-10-28T11:23:22.696Z,15.65
2022-10-28T11:26:03.529Z,14.20
2022-10-28T11:29:09.935Z,13.93
2022-10-28T11:32:25.744Z,14.15
2022-10-28T11:35:36.862Z,14.35
2022-10-28T11:38:51.319Z,14.85
2022-10-28T11:41:39.134Z,13.32
2022-10-28T11:44:30.935Z,15.77
2022-10-28T11:47:09.899Z,14.55
2022-10-28T11:50:13.293Z,14.48
2022-10-28T11:52:55.618Z,12.68
2022-10-28T11:55:28.047Z,11.20
2022-10-28T11:58:15.871Z,11.82
2022-10-28T12:01:04.511Z,11.30
2022-10-28T12:03:46.484Z,10.80
2022-10-28T12:06:36.165Z,11.07
2022-10-28T12:10:03.622Z,10.88
2022-10-28T12:12:51.226Z,11.02
2022-10-28T12:15:43.380Z,14.68
2022-10-28T12:18:32.545Z,16.30
2022-10-28T12:21:45.965Z,12.55
2022-10-28T12:24:19.440Z,11.55
2022-10-28T12:26:55.459Z,10.23
2022-10-28T12:29:37.632Z,10.20
2022-10-28T12:32:14.102Z,9.00
2022-10-28T12:35:19.991Z,8.73
2022-10-28T12:38:18.996Z,9.48
2022-10-28T12:41:02.961Z,9.88
2022-10-28T12:43:42.306Z,10.40
2022-10-28T12:46:38.059Z,9.73
2022-10-28T12:49:25.808Z,10.13
2022-10-28T12:51:54.359Z,8.98
2022-10-28T12:54:35.470Z,8.82
2022-10-28T12:57:13.129Z,8.10
2022-10-28T13:00:02.518Z,9.10
2022-10-28T13:03:02.608Z,8.80
2022-10-28T13:06:25.076Z,9.05
2022-10-28T13:09:36.306Z,8.23
2022-10-28T13:13:00.179Z,9.02
2022-10-28T13:16:08.313Z,7.38
2022-10-28T13:19:05.285Z,7.95
2022-10-28T13:22:07.318Z,8.00
2022-10-28T13:25:00.228Z,6.75
2022-10-28T13:27:27.689Z,7.47
2022-10-28T13:29:59.890Z,7.15
2022-10-28T13:32:39.958Z,6.72
2022-10-28T13:35:24.989Z,7.47
2022-10-28T13:37:54.748Z,6.70
2022-10-28T13:40:33.751Z,6.65
2022-10-28T13:43:01.907Z,7.03
2022-10-28T13:45:50.436Z,7.55
2022-10-28T13:48:29.567Z,7.13
2022-10-28T13:51:25.203Z,7.68
2022-10-28T13:53:59.335Z,8.10
2022-10-28T13:56:48.486Z,7.90
2022-10-28T13:59:15.379Z,8.02
2022-10-28T14:01:56.769Z,7.57
2022-10-28T14:04:38.760Z,6.93
2022-10-28T14:07:12.673Z,6.57
2022-10-28T14:09:41.968Z,7.72
2022-10-28T14:12:26.872Z,7.30
2022-10-28T14:15:19.289Z,6.97
2022-10-28T14:17:53.115Z,7.47
2022-10-28T14:21:00.837Z,8.10
2022-10-28T14:23:47.793Z,7.88
2022-10-28T14:26:14.852Z,8.15
2022-10-28T14:28:41.629Z,7.70
2022-10-28T14:31:08.699Z,8.05
2022-10-28T14:33:44.529Z,8.18
2022-10-28T14:36:17.450Z,9.95
2022-10-28T14:38:53.204Z,8.73
2022-10-28T14:42:12.770Z,7.35
2022-10-28T14:45:15.262Z,8.30
2022-10-28T14:48:30.018Z,7.85
2022-10-28T14:51:00.146Z,7.72
2022-10-28T14:53:33.780Z,7.57
2022-10-28T14:56:20.334Z,7.68
2022-10-28T14:58:47.893Z,8.50
2022-10-28T15:01:17.907Z,8.93
2022-10-28T15:04:04.777Z,8.15
2022-10-28T15:06:37.429Z,8.40
2022-10-28T15:09:23.123Z,9.52
2022-10-28T15:12:04.746Z,8.82
2022-10-28T15:14:46.303Z,9.88
2022-10-28T15:17:17.984Z,9.35
2022-10-28T15:19:54.623Z,9.48
2022-10-28T15:22:22.614Z,10.25
2022-10-28T15:25:06.024Z,10.68
2022-10-28T15:27:40.158Z,10.40
2022-10-28T15:30:23.572Z,9.80
2022-10-28T15:32:55.379Z,10.15
2022-10-28T15:35:28.288Z,9.77
2022-10-28T15:37:57.021Z,11.43
2022-10-28T15:40:44.499Z,9.55
2022-10-28T15:43:26.483Z,10.75
2022-10-28T15:45:53.903Z,10.30
2022-10-28T15:48:27.812Z,10.93
2022-10-28T15:51:14.274Z,10.70
2022-10-28T15:53:45.981Z,10.00
2022-10-28T15:56:20.198Z,10.43
2022-10-28T15:59:11.050Z,10.77
2022-10-28T16:01:39.720Z,10.38
2022-10-28T16:04:35.675Z,11.15
2022-10-28T16:07:08.818Z,11.05
2022-10-28T16:09:43.098Z,10.05
2022-10-28T16:12:24.819Z,11.25
2022-10-28T16:14:54.808Z,10.10
2022-10-28T16:17:32.929Z,11.23
2022-10-28T16:20:18.870Z,11.23
2022-10-28T16:22:47.298Z,11.57
2022-10-28T16:25:17.843Z,10.70
2022-10-28T16:27:44.744Z,11.70
2022-10-28T16:30:12.574Z,11.35
2022-10-28T16:32:46.958Z,11.52
2022-10-28T16:35:16.581Z,12.30
2022-10-28T16:37:47.388Z,11.95
2022-10-28T16:40:45.508Z,11.55
2022-10-28T16:43:04.008Z,12.73
2022-10-28T16:45:30.893Z,11.32
2022-10-28T16:47:58.002Z,11.60
2022-10-28T16:50:25.162Z,10.98
2022-10-28T16:52:54.345Z,12.10
2022-10-28T16:55:21.409Z,11.15
2022-10-28T16:57:48.384Z,11.68
2022-10-28T17:00:15.672Z,11.23
2022-10-28T17:02:42.872Z,11.32
2022-10-28T17:05:22.446Z,11.65
2022-10-28T17:07:49.479Z,11.63
2022-10-28T17:10:17.885Z,11.05
2022-10-28T17:12:44.811Z,12.65
2022-10-28T17:15:11.788Z,11.95
2022-10-28T17:17:38.815Z,11.07
2022-10-28T17:20:06.937Z,11.43
2022-10-28T17:22:34.217Z,12.20
2022-10-28T17:25:01.251Z,11.65
2022-10-28T17:27:28.186Z,12.10
2022-10-28T17:29:55.335Z,12.13
2022-10-28T17:32:22.377Z,12.20
2022-10-28T17:34:49.756Z,11.60
2022-10-28T17:37:16.870Z,11.68
2022-10-28T17:39:43.924Z,11.35
2022-10-28T17:42:10.975Z,12.32
2022-10-28T17:44:37.990Z,12.25
2022-10-28T17:47:04.967Z,11.90
2022-10-28T17:49:34.312Z,12.50
2022-10-28T17:52:01.274Z,12.23
2022-10-28T17:54:28.950Z,12.50
2022-10-28T17:56:56.554Z,13.18
2022-10-28T17:59:23.513Z,12.07
2022-10-28T18:01:50.742Z,12.75
2022-10-28T18:04:17.888Z,12.45
2022-10-28T18:06:44.812Z,12.60
2022-10-28T18:09:12.969Z,12.30
2022-10-28T18:11:40.057Z,12.10
2022-10-28T18:14:07.302Z,13.43
2022-10-28T18:16:37.271Z,12.75
2022-10-28T18:19:06.767Z,12.63
2022-10-28T18:21:34.739Z,11.57
2022-10-28T18:24:04.017Z,13.02
2022-10-28T18:26:33.756Z,12.35
2022-10-28T18:29:04.088Z,12.82
2022-10-28T18:31:33.291Z,11.52
2022-10-28T18:34:01.808Z,11.05
2022-10-28T18:36:34.508Z,12.43
2022-10-28T18:39:05.069Z,13.30
2022-10-28T18:41:34.506Z,12.07
2022-10-28T18:44:04.460Z,12.20
2022-10-28T18:46:37.841Z,10.98
2022-10-28T18:49:07.820Z,11.50
2022-10-28T18:51:34.947Z,11.27
2022-10-28T18:54:02.261Z,11.60
2022-10-28T18:56:29.558Z,12.13
2022-10-28T18:58:58.409Z,11.02
2022-10-28T19:01:28.430Z,11.13
2022-10-28T19:04:04.357Z,11.35
2022-10-28T19:06:33.418Z,10.93
2022-10-28T19:09:03.959Z,11.57
2022-10-28T19:11:32.898Z,11.95
2022-10-28T19:14:05.558Z,12.35
2022-10-28T19:16:34.321Z,11.07
2022-10-28T19:19:04.321Z,10.85
2022-10-28T19:21:31.691Z,10.98
2022-10-28T19:23:58.802Z,11.40
2022-10-28T19:26:25.911Z,11.00
2022-10-28T19:28:53.660Z,10.50
2022-10-28T19:31:24.662Z,11.30
2022-10-28T19:33:55.144Z,12.30
2022-10-28T19:36:28.029Z,10.90
2022-10-28T19:38:56.651Z,10.48
2022-10-28T19:41:27.488Z,10.70
2022-10-28T19:43:58.489Z,10.18
2022-10-28T19:46:28.289Z,11.02
2022-10-28T19:48:58.483Z,10.88
2022-10-28T19:51:32.554Z,11.10
2022-10-28T19:54:05.869Z,10.38
2022-10-28T19:56:35.088Z,9.48
2022-10-28T19:59:04.217Z,9.95
2022-10-28T20:01:37.808Z,10.68
2022-10-28T20:04:05.414Z,9.32
2022-10-28T20:06:35.987Z,10.02
2022-10-28T20:09:04.254Z,10.15
2022-10-28T20:11:35.075Z,10.45
2022-10-28T20:14:05.708Z,11.02
2022-10-28T20:16:33.235Z,10.13
2022-10-28T20:19:00.900Z,11.88
2022-10-28T20:21:31.310Z,9.85
2022-10-28T20:23:58.639Z,11.23
2022-10-28T20:26:30.941Z,10.57
2022-10-28T20:28:59.631Z,10.68
2022-10-28T20:31:30.016Z,11.10
2022-10-28T20:34:01.575Z,11.90
2022-10-28T20:36:32.361Z,11.32
2022-10-28T20:39:11.241Z,10.88
2022-10-28T20:41:40.507Z,10.80
2022-10-28T20:44:08.352Z,11.20
2022-10-28T20:46:35.773Z,10.50
2022-10-28T20:49:03.983Z,9.55
2022-10-28T20:51:32.866Z,10.30
2022-10-28T20:54:00.315Z,9.18
2022-10-28T20:56:30.492Z,10.45
2022-10-28T20:58:57.995Z,10.05
2022-10-28T21:01:37.897Z,10.52
2022-10-28T21:04:09.014Z,9.93
2022-10-28T21:06:37.951Z,10.40
2022-10-28T21:09:05.476Z,9.93
2022-10-28T21:11:32.478Z,10.05
2022-10-28T21:14:01.376Z,9.70
2022-10-28T21:16:29.648Z,10.07
2022-10-28T21:18:57.902Z,10.18
2022-10-28T21:21:25.750Z,9.75
2022-10-28T21:23:53.077Z,10.50
2022-10-28T21:26:20.158Z,10.48
2022-10-28T21:28:52.086Z,9.02
2022-10-28T21:31:20.875Z,9.73
2022-10-28T21:36:21.911Z,8.70
2022-10-28T21:38:52.355Z,9.73
2022-10-28T21:41:20.844Z,10.05
2022-10-28T21:43:50.955Z,9.05
2022-10-28T21:46:20.308Z,8.40
2022-10-28T21:48:47.801Z,9.35
2022-10-28T21:51:16.505Z,9.02
2022-10-28T21:53:44.756Z,8.90
2022-10-28T21:56:19.066Z,9.13
2022-10-28T21:58:48.902Z,8.05
2022-10-28T22:01:19.994Z,8.75
2022-10-28T22:03:47.153Z,8.75
2022-10-28T22:06:14.750Z,8.40
2022-10-28T22:08:42.121Z,7.97
2022-10-28T22:11:20.124Z,9.77
2022-10-28T22:13:54.687Z,8.55
2022-10-28T22:16:21.628Z,8.73
2022-10-28T22:18:48.536Z,9.10
2022-10-28T22:21:21.493Z,9.30
2022-10-28T22:23:49.503Z,9.02
2022-10-28T22:26:26.217Z,8.80
2022-10-28T22:28:53.640Z,9.07
2022-10-28T22:31:25.082Z,9.07
2022-10-28T22:33:52.498Z,9.40
2022-10-28T22:36:25.226Z,9.23
2022-10-28T22:38:52.610Z,8.48
2022-10-28T22:41:25.317Z,10.55
2022-10-28T22:44:01.264Z,8.93
2022-10-28T22:46:31.765Z,9.77
2022-10-28T22:48:58.776Z,9.55
2022-10-28T22:51:25.764Z,9.77
2022-10-28T22:53:52.733Z,9.18
2022-10-28T22:56:23.328Z,8.55
2022-10-28T22:58:57.037Z,8.75
2022-10-28T23:01:25.899Z,9.05
2022-10-28T23:03:53.759Z,9.35
2022-10-28T23:06:24.006Z,9.45
2022-10-28T23:08:51.094Z,9.32
2022-10-28T23:11:20.857Z,9.25
2022-10-28T23:13:52.815Z,9.15
2022-10-28T23:16:20.633Z,9.02
2022-10-28T23:18:48.838Z,9.40
2022-10-28T23:21:19.298Z,8.30
2022-10-28T23:23:51.150Z,9.05
2022-10-28T23:26:21.304Z,7.68
2022-10-28T23:28:52.875Z,8.68
2022-10-28T23:31:20.787Z,8.57
2022-10-28T23:33:48.188Z,9.00
2022-10-28T23:36:16.122Z,9.27
2022-10-28T23:38:43.574Z,9.13
2022-10-28T23:41:18.448Z,8.68
2022-10-28T23:43:46.033Z,8.98
2022-10-28T23:46:13.274Z,8.50
2022-10-28T23:48:40.247Z,8.98
2022-10-28T23:51:07.357Z,8.30
2022-10-28T23:53:34.972Z,8.20
2022-10-28T23:56:01.955Z,9.40
2022-10-28T23:58:28.975Z,8.85
